Quimper, France

10:37 AM CEST on August 02, 2014 (GMT +0200)
Pluguffan (LFRQ) Elev 308 ft | 47.97 °N, 4.17 °W | Change Station

Current weather conditions updated 7 minutes ago

Mostly Cloudy
Mostly Cloudy
66 °F
Feels Like 66 °F
N
7
Wind Variable Wind from West

Today is forecast to be nearly the same temperature as yesterday. Partly cloudy.

Today
High -- | Low -- °F
--% Chance of Precip.
Yesterday
High -- | Low -- °F
Precip. -- in
6:53 AM 9:51 PM
Waxing Crescent, 33% visible
Pressure 29.65 in
Visibility 6.2 miles
Clouds Few 1100 ft
Scattered Clouds 1700 ft
Mostly Cloudy 2300 ft
Dew Point 61 °F
Humidity 83%
Rainfall 0.00 in
Snow Depth Not available.
UV 2 out of 12
Pollen Not available.
Air Quality Not available.
Flu Activity Not available.
METAR LFRQ 020830Z AUTO 27006KT 9999 FEW011 SCT017 BKN023 19/16 Q1004

More Conditions Fewer Conditions

Pressure 29.65 in
Visibility 6.2 miles
Clouds Few 1100 ft
Scattered Clouds 1700 ft
Mostly Cloudy 2300 ft
Dew Point 61 °F
Humidity 83%
Rainfall 0.00 in
Snow Depth Not available.
UV 2 out of 12
Pollen Not available.
Air Quality Not available.
Flu Activity Not available.
METAR LFRQ 020830Z AUTO 27006KT 9999 FEW011 SCT017 BKN023 19/16 Q1004

More Conditions Fewer Conditions

10-Day Weather Forecast

Almanac

Astronomy

Aug. 02, 2014 Rise Set
Actual Time 6:53 AM CEST 9:51 PM CEST
Civil Twilight 6:17 AM CEST 10:27 PM CEST
Nautical Twilight 5:30 AM CEST 11:13 PM CEST
Astronomical Twilight 4:33 AM CEST 12:09 AM CEST
Moon 1:33 PM CEST 12:00 AM CEST
Length of Visible Light 16h 09m
Length of Day
14h 57m
Tomorrow will be 2m 46s shorter.
Waxing Crescent, 33% of the Moon is Illuminated
Today
Waxing Crescent
Aug 3
First Quarter
Aug 10
Full
Aug 17
Last Quarter
Aug 25
New

Yesterday's Extremes

Country Highs Country Lows

Community

WunderPhotos

Upload Photos

1,739,844 photos uploaded!

Nearby

Snow Depth

Not available.

Earthquake Activity

City Distance Mag. Time & Date
No recent earthquake activity has been reported nearby.
Minimum magnitude displayed is 2.5.

Coastal Water Temperatures

Place Temperature
No Stations Reporting

Nearby Weather Stations

Station Location Temp. Dew Point Humidity Wind Precip. Elev Updated Type
Station meteo de Kervouyec - Quimper, Quimper 65.3 °F 61 °F 86% SSW  at  3.0 mph 0.00 in / hr 85 ft 10:37 AM CEST Normal

Show More Stations Show Fewer Stations